Aviation Digital Data Service (ADDS)

Output produced by METARs form (1837 UTC 26 October 2021)
found at http://aviationweather.gov/metar/data/
 
METAR text: EGLF 261820Z 22013KT 9999 BKN014 15/12 Q1019
Conditions at: EGLF (FARNBOROUGH , GB) observed 1820 UTC 26 October 2021
Temperature: 15.0°C (59°F)
Dewpoint: 12.0°C (54°F) [RH = 82%]
Pressure (altimeter): 30.09 inches Hg (1019.0 mb)
Winds: from the SW (220 degrees) at 15 MPH (13 knots; 6.7 m/s)
Visibility: 6 or more miles (10+ km)
Ceiling: 1400 feet AGL
Clouds: broken clouds at 1400 feet AGL
Weather: no significant weather observed at this time

METAR text: EGLF 261750Z 21009KT 9999 SCT016 BKN032 15/12 Q1019
Conditions at: EGLF (FARNBOROUGH , GB) observed 1750 UTC 26 October 2021
Temperature: 15.0°C (59°F)
Dewpoint: 12.0°C (54°F) [RH = 82%]
Pressure (altimeter): 30.09 inches Hg (1019.0 mb)
Winds: from the SSW (210 degrees) at 10 MPH (9 knots; 4.6 m/s)
Visibility: 6 or more miles (10+ km)
Ceiling: 3200 feet AGL
Clouds: scattered clouds at 1600 feet AGL
broken clouds at 3200 feet AGL
Weather: no significant weather observed at this time

Forecast for: EGLF (FARNBOROUGH , GB)
Text: TAF EGLF 261658Z 2618/2623 21012KT 9999 SCT018
Forecast period: 1800 to 2300 UTC 26 October 2021
Forecast type: FROM: standard forecast or significant change
Winds: from the SSW (210 degrees) at 14 MPH (12 knots; 6.2 m/s)
Visibility: 6 or more miles (10+ km)
Ceiling: at least 12,000 feet AGL
Clouds: scattered clouds at 1800 feet AGL
Weather: no significant weather forecast for this period
Text: PROB30
Forecast period: 1800 to 2300 UTC 26 October 2021
Forecast type: TEMPORARY: The following changes expected for less than half the time period
Visibility: 6 miles (9 km)
Ceiling: 900 feet AGL
Clouds: broken clouds at 900 feet AGL
Weather: no significant weather forecast for this period